Time;durP1;ratioP1;P1;durP2;ratioP2;P2;SDS_P1;SDS_P2;PMS_P1;PMS_P2;Temp;Humidity;BMP_temperature;BMP_pressure;BME280_temperature;BME280_humidity;BME280_pressure;Samples;Min_cycle;Max_cycle;Signal;HPM_P1;HPM_P2
2023/05/30 00:00:59;;;;;;;13.40;2.70;;;11.70;99.90;;;;;;5038422;28;20052;-86
2023/05/30 00:03:25;;;;;;;11.05;2.85;;;13.50;99.90;;;;;;5048024;28;20615;-86
2023/05/30 00:05:51;;;;;;;8.80;2.80;;;12.30;99.90;;;;;;5023550;28;20128;-86
2023/05/30 00:08:16;;;;;;;12.30;2.85;;;11.70;99.90;;;;;;5044230;28;20471;-87
2023/05/30 00:10:42;;;;;;;9.85;2.95;;;12.30;99.90;;;;;;5042831;28;20036;-86
2023/05/30 00:13:07;;;;;;;9.60;2.42;;;11.60;99.90;;;;;;5058987;28;20148;-86
2023/05/30 00:15:33;;;;;;;13.90;2.90;;;11.60;99.90;;;;;;5056501;28;20049;-87
2023/05/30 00:18:00;;;;;;;13.02;3.05;;;12.10;99.90;;;;;;5047168;28;20064;-87
2023/05/30 00:20:29;;;;;;;11.05;3.08;;;11.60;99.90;;;;;;5042190;28;20037;-86
2023/05/30 00:22:58;;;;;;;14.15;3.38;;;11.60;99.90;;;;;;5047117;28;20077;-87
2023/05/30 00:25:24;;;;;;;14.20;2.58;;;13.00;99.90;;;;;;5037776;28;20033;-87
2023/05/30 00:27:50;;;;;;;6.60;2.50;;;13.20;99.90;;;;;;5039972;28;20494;-87
2023/05/30 00:30:16;;;;;;;11.82;3.15;;;10.40;99.90;;;;;;5024248;28;20049;-86
2023/05/30 00:32:42;;;;;;;8.93;3.13;;;11.60;99.90;;;;;;5047412;28;20044;-86
2023/05/30 00:35:08;;;;;;;12.88;2.72;;;11.60;99.90;;;;;;5047457;28;20431;-87
2023/05/30 00:37:34;;;;;;;8.75;2.70;;;11.60;99.90;;;;;;5039657;28;20420;-86
2023/05/30 00:40:00;;;;;;;9.68;2.50;;;11.60;99.90;;;;;;5020844;28;20056;-87
2023/05/30 00:42:28;;;;;;;8.13;2.70;;;11.60;99.90;;;;;;5014165;28;20111;-86
2023/05/30 00:44:54;;;;;;;15.85;3.15;;;11.50;99.90;;;;;;5022383;28;20036;-87
2023/05/30 00:47:20;;;;;;;10.57;2.85;;;11.30;99.90;;;;;;5024706;28;20053;-87
2023/05/30 00:49:47;;;;;;;8.50;2.42;;;11.50;99.90;;;;;;5020373;28;20045;-87
2023/05/30 00:52:13;;;;;;;10.70;2.53;;;13.20;99.90;;;;;;5023525;28;20521;-87
2023/05/30 00:54:43;;;;;;;7.95;2.53;;;11.50;99.90;;;;;;5021980;28;21295;-87
2023/05/30 00:57:09;;;;;;;14.93;2.50;;;12.70;99.90;;;;;;5020111;28;20661;-86
2023/05/30 00:59:35;;;;;;;12.98;3.05;;;11.40;99.90;;;;;;5019615;28;20623;-86
2023/05/30 01:02:01;;;;;;;8.70;2.65;;;11.40;99.90;;;;;;5020166;28;20042;-86
2023/05/30 01:04:26;;;;;;;13.32;2.63;;;11.40;99.90;;;;;;5018683;28;20509;-86
2023/05/30 01:06:53;;;;;;;10.98;2.47;;;13.10;99.90;;;;;;5004139;28;20041;-86
2023/05/30 01:09:18;;;;;;;11.50;2.30;;;11.20;99.90;;;;;;5019703;28;20124;-87
2023/05/30 01:11:51;;;;;;;9.52;2.15;;;13.50;99.90;;;;;;5024197;28;20128;-86
2023/05/30 01:14:45;;;;;;;9.65;2.70;;;11.30;99.90;;;;;;5029457;28;20074;-85
2023/05/30 01:17:20;;;;;;;10.70;2.65;;;11.40;99.90;;;;;;5012224;28;20054;-85
2023/05/30 01:20:22;;;;;;;15.32;3.20;;;11.30;99.90;;;;;;5013205;28;20077;-87
2023/05/30 01:23:14;;;;;;;15.50;3.00;;;11.30;99.90;;;;;;5006082;28;20091;-87
2023/05/30 01:25:59;;;;;;;9.15;2.45;;;11.40;99.90;;;;;;5024176;28;20048;-87
2023/05/30 01:28:28;;;;;;;13.98;3.13;;;11.40;99.90;;;;;;5014848;28;20045;-88
2023/05/30 01:30:56;;;;;;;11.57;2.90;;;12.00;99.90;;;;;;5027214;28;20392;-84
2023/05/30 01:33:23;;;;;;;12.98;2.67;;;11.40;99.90;;;;;;5028509;28;20046;-84
2023/05/30 01:35:49;;;;;;;12.43;2.63;;;12.90;99.90;;;;;;5025177;28;20496;-88
2023/05/30 01:38:15;;;;;;;11.35;2.63;;;11.30;99.90;;;;;;5028710;28;20060;-85
2023/05/30 01:40:46;;;;;;;15.27;2.88;;;13.30;99.90;;;;;;5047067;28;20057;-85
2023/05/30 01:43:40;;;;;;;10.38;2.30;;;11.40;99.90;;;;;;5047215;28;20126;-85
2023/05/30 01:46:16;;;;;;;13.88;2.65;;;12.10;99.90;;;;;;5029927;28;20826;-85
2023/05/30 01:48:45;;;;;;;9.32;2.67;;;11.30;99.90;;;;;;5022587;28;20401;-85
2023/05/30 01:51:15;;;;;;;11.73;3.08;;;11.30;99.90;;;;;;5022025;28;20045;-86
2023/05/30 01:53:46;;;;;;;10.05;2.85;;;11.20;99.90;;;;;;5026352;28;20103;-85
2023/05/30 01:56:14;;;;;;;11.68;2.83;;;11.30;99.90;;;;;;5010143;28;20041;-86
2023/05/30 01:58:40;;;;;;;10.43;2.95;;;12.60;99.90;;;;;;5045376;28;20052;-86
2023/05/30 02:01:07;;;;;;;7.93;2.60;;;11.70;99.90;;;;;;5045354;28;20044;-86
2023/05/30 02:03:33;;;;;;;6.68;2.55;;;11.30;99.90;;;;;;5031237;28;20045;-85
2023/05/30 02:06:00;;;;;;;8.60;2.28;;;11.30;99.90;;;;;;5048954;28;20048;-86
2023/05/30 02:08:26;;;;;;;8.43;2.25;;;12.10;99.90;;;;;;5035467;28;20048;-86
2023/05/30 02:10:52;;;;;;;11.00;2.35;;;11.30;99.90;;;;;;5029610;28;20064;-86
2023/05/30 02:13:18;;;;;;;12.23;3.10;;;12.00;99.90;;;;;;5038619;28;20416;-85
2023/05/30 02:15:44;;;;;;;10.05;2.85;;;13.50;99.90;;;;;;5034114;28;20049;-86
2023/05/30 02:18:10;;;;;;;14.95;3.03;;;11.70;99.90;;;;;;5041809;28;20044;-86
2023/05/30 02:20:36;;;;;;;8.25;2.17;;;11.10;99.90;;;;;;5026575;28;20045;-85
2023/05/30 02:23:02;;;;;;;11.30;2.90;;;9.90;99.90;;;;;;5007791;28;20080;-86
2023/05/30 02:25:28;;;;;;;11.52;2.80;;;13.30;99.90;;;;;;5004728;28;20046;-86
2023/05/30 02:27:53;;;;;;;16.63;2.97;;;11.20;99.90;;;;;;5043771;28;20045;-86
2023/05/30 02:30:19;;;;;;;13.48;3.20;;;11.30;99.90;;;;;;5046460;28;20044;-86
2023/05/30 02:32:45;;;;;;;9.73;2.35;;;13.20;99.90;;;;;;5037601;28;20459;-85
2023/05/30 02:35:10;;;;;;;12.13;2.63;;;11.30;99.90;;;;;;5035245;28;20037;-86
2023/05/30 02:37:36;;;;;;;9.88;2.40;;;11.30;99.90;;;;;;5038666;28;20037;-85
2023/05/30 02:40:03;;;;;;;10.55;2.78;;;11.20;99.90;;;;;;5043352;28;20540;-85
2023/05/30 02:42:30;;;;;;;7.88;2.38;;;11.30;99.90;;;;;;5037493;28;20072;-85
2023/05/30 02:44:55;;;;;;;10.50;2.60;;;11.30;99.90;;;;;;5044529;28;20037;-86
2023/05/30 02:47:21;;;;;;;11.20;2.90;;;11.30;99.90;;;;;;5023439;28;20155;-85
2023/05/30 02:49:47;;;;;;;9.35;3.17;;;11.30;99.90;;;;;;5027999;28;20090;-85
2023/05/30 02:52:14;;;;;;;11.20;2.55;;;11.30;99.90;;;;;;5040629;28;20429;-85
2023/05/30 02:54:41;;;;;;;9.20;2.50;;;11.30;99.90;;;;;;5034542;28;20123;-85
2023/05/30 02:57:06;;;;;;;14.60;3.17;;;11.30;99.90;;;;;;5036445;28;20084;-86
2023/05/30 02:59:32;;;;;;;7.63;2.70;;;11.30;99.90;;;;;;5038768;28;20081;-85
2023/05/30 03:01:57;;;;;;;8.25;2.53;;;12.20;99.90;;;;;;5041893;28;20043;-86
2023/05/30 03:04:23;;;;;;;9.88;2.90;;;11.30;99.90;;;;;;5042915;28;20110;-85
2023/05/30 03:06:50;;;;;;;13.02;2.55;;;12.80;99.90;;;;;;5038719;28;20125;-86
2023/05/30 03:09:16;;;;;;;15.38;2.70;;;12.20;99.90;;;;;;5047623;28;20056;-85
2023/05/30 03:11:41;;;;;;;12.30;2.92;;;11.10;99.90;;;;;;5045142;28;20045;-85
2023/05/30 03:14:07;;;;;;;12.45;2.92;;;11.30;99.90;;;;;;5034831;28;20121;-86
2023/05/30 03:16:33;;;;;;;10.57;3.13;;;11.30;99.90;;;;;;5037402;28;20057;-86
2023/05/30 03:18:58;;;;;;;9.40;2.95;;;11.80;99.90;;;;;;5036718;28;20033;-85
2023/05/30 03:21:24;;;;;;;8.15;2.75;;;11.30;99.90;;;;;;5022204;28;20481;-85
2023/05/30 03:23:51;;;;;;;10.98;2.63;;;;;;;;;;5037573;28;20037;-86
2023/05/30 03:26:16;;;;;;;11.55;3.20;;;11.30;99.90;;;;;;5049575;28;20081;-87
2023/05/30 03:28:42;;;;;;;9.15;2.85;;;11.70;99.90;;;;;;5029428;28;20571;-87
2023/05/30 03:31:08;;;;;;;9.95;3.33;;;13.30;99.90;;;;;;5037328;28;20128;-86
2023/05/30 03:33:33;;;;;;;8.20;2.95;;;11.30;99.90;;;;;;5040202;28;20064;-87
2023/05/30 03:35:59;;;;;;;10.32;2.85;;;11.30;99.90;;;;;;5035119;28;20037;-88
2023/05/30 03:38:25;;;;;;;7.45;2.20;;;11.30;99.90;;;;;;5043957;28;20057;-86
2023/05/30 03:40:51;;;;;;;13.93;2.78;;;11.30;99.90;;;;;;5031839;28;20048;-85
2023/05/30 03:43:16;;;;;;;12.40;3.13;;;11.30;99.90;;;;;;5045963;28;20393;-88
2023/05/30 03:45:45;;;;;;;12.38;2.85;;;12.10;99.90;;;;;;5046836;28;20041;-85
2023/05/30 03:48:11;;;;;;;10.32;2.67;;;11.20;99.90;;;;;;5041231;28;20234;-86
2023/05/30 03:50:36;;;;;;;10.80;2.97;;;12.60;99.90;;;;;;5050922;28;20080;-85
2023/05/30 03:53:02;;;;;;;10.80;3.00;;;11.30;99.90;;;;;;5040617;28;20033;-86
2023/05/30 03:55:28;;;;;;;11.38;3.70;;;12.70;99.90;;;;;;5042544;28;20048;-86
2023/05/30 03:57:53;;;;;;;11.48;3.45;;;11.30;99.90;;;;;;5050802;28;20044;-85
2023/05/30 04:00:19;;;;;;;15.18;2.85;;;13.30;99.90;;;;;;5053467;28;20044;-85
2023/05/30 04:02:45;;;;;;;6.90;2.65;;;12.10;99.90;;;;;;5029101;28;20058;-86
2023/05/30 04:05:11;;;;;;;9.45;3.30;;;13.40;99.90;;;;;;5048200;28;20116;-85
2023/05/30 04:07:36;;;;;;;14.73;3.13;;;11.60;99.90;;;;;;5040054;28;20099;-85
2023/05/30 04:10:03;;;;;;;16.83;3.70;;;13.30;99.90;;;;;;5039193;28;20036;-85
2023/05/30 04:12:29;;;;;;;9.98;2.72;;;11.40;99.90;;;;;;5037569;28;20114;-86
2023/05/30 04:14:55;;;;;;;16.60;4.13;;;12.90;99.90;;;;;;5040222;28;20389;-86
2023/05/30 04:17:21;;;;;;;15.02;3.60;;;11.40;99.90;;;;;;5042437;28;20037;-86
2023/05/30 04:19:47;;;;;;;11.80;2.70;;;11.30;99.90;;;;;;5029382;28;20045;-87
2023/05/30 04:22:13;;;;;;;10.18;3.25;;;12.00;99.90;;;;;;5041968;28;20064;-86
2023/05/30 04:24:38;;;;;;;14.43;3.10;;;12.00;99.90;;;;;;5012478;28;20272;-87
2023/05/30 04:27:04;;;;;;;13.95;3.58;;;13.70;99.90;;;;;;5049953;28;20062;-87
2023/05/30 04:29:30;;;;;;;12.90;3.17;;;11.50;99.90;;;;;;5046973;28;20110;-88
2023/05/30 04:31:56;;;;;;;15.63;3.63;;;11.50;99.90;;;;;;5028422;28;20065;-87
2023/05/30 04:34:23;;;;;;;13.77;3.35;;;13.00;99.90;;;;;;5041593;28;20053;-86
2023/05/30 04:36:53;;;;;;;13.35;3.30;;;11.50;99.90;;;;;;5012994;28;20080;-86
2023/05/30 04:39:19;;;;;;;12.80;4.22;;;11.50;99.90;;;;;;5052675;28;20132;-86
2023/05/30 04:41:44;;;;;;;12.68;3.10;;;11.50;99.90;;;;;;5012334;28;20156;-86
2023/05/30 04:44:18;;;;;;;10.93;3.33;;;12.30;99.90;;;;;;5040654;28;20091;-87
2023/05/30 04:46:46;;;;;;;15.73;3.72;;;11.50;99.90;;;;;;5043420;28;20500;-86
2023/05/30 04:49:14;;;;;;;13.98;5.82;;;13.60;99.90;;;;;;5041053;28;20488;-85
2023/05/30 04:51:40;;;;;;;13.15;3.75;;;12.40;99.90;;;;;;5029887;28;20048;-84
2023/05/30 04:54:05;;;;;;;11.60;3.58;;;11.50;99.90;;;;;;5044487;28;20041;-84
2023/05/30 04:56:31;;;;;;;10.10;3.28;;;13.20;99.90;;;;;;5047939;28;20041;-86
2023/05/30 04:58:57;;;;;;;14.90;2.78;;;11.60;99.90;;;;;;5042843;28;20072;-86
2023/05/30 05:01:23;;;;;;;10.57;2.85;;;12.50;99.90;;;;;;5040104;28;20713;-85
2023/05/30 05:03:53;;;;;;;10.27;2.70;;;12.80;99.90;;;;;;5042050;28;20050;-86
2023/05/30 05:06:19;;;;;;;13.30;3.50;;;11.60;99.90;;;;;;5046369;28;20402;-85
2023/05/30 05:08:45;;;;;;;7.38;2.58;;;11.60;99.90;;;;;;5042806;28;20045;-85
2023/05/30 05:11:11;;;;;;;18.52;3.83;;;13.00;99.90;;;;;;5039897;28;20045;-86
2023/05/30 05:13:36;;;;;;;15.65;3.20;;;12.50;99.90;;;;;;5039849;28;20037;-86
2023/05/30 05:16:04;;;;;;;13.15;3.30;;;12.60;99.90;;;;;;5039595;28;20127;-86
2023/05/30 05:18:29;;;;;;;14.82;3.47;;;11.70;99.90;;;;;;5002093;28;20041;-86
2023/05/30 05:20:55;;;;;;;14.60;5.63;;;13.10;99.90;;;;;;5039078;28;20045;-86
2023/05/30 05:23:22;;;;;;;12.25;2.90;;;11.60;99.90;;;;;;5039584;28;20507;-85
2023/05/30 05:25:47;;;;;;;10.60;2.55;;;11.70;99.90;;;;;;5032750;28;20566;-86
2023/05/30 05:28:14;;;;;;;11.77;2.78;;;11.60;99.90;;;;;;5028865;28;20120;-86
2023/05/30 05:30:40;;;;;;;11.23;3.20;;;11.70;99.90;;;;;;5041978;28;20056;-85
2023/05/30 05:33:07;;;;;;;13.05;2.80;;;11.60;99.90;;;;;;5037955;28;20409;-85
2023/05/30 05:35:33;;;;;;;7.25;2.55;;;11.70;99.90;;;;;;5040946;28;20036;-87
2023/05/30 05:37:59;;;;;;;7.97;2.28;;;11.70;99.90;;;;;;5022639;28;20103;-86
2023/05/30 05:40:25;;;;;;;8.60;2.20;;;13.20;99.90;;;;;;5037181;28;20053;-84
2023/05/30 05:42:51;;;;;;;16.02;8.05;;;11.90;99.90;;;;;;5033937;28;20045;-86
2023/05/30 05:45:17;;;;;;;20.13;6.13;;;13.20;99.90;;;;;;5047667;28;20098;-83
2023/05/30 05:47:42;;;;;;;7.60;2.00;;;11.70;99.90;;;;;;4688954;28;10000528;-84
2023/05/30 05:50:08;;;;;;;8.50;2.03;;;12.70;99.90;;;;;;5027138;28;20044;-84
2023/05/30 05:52:34;;;;;;;10.82;1.80;;;11.00;99.90;;;;;;5035309;28;20044;-85
2023/05/30 05:54:59;;;;;;;7.10;1.98;;;13.90;99.90;;;;;;5021934;28;20037;-85
2023/05/30 05:57:25;;;;;;;4.85;1.83;;;11.70;99.90;;;;;;5036776;28;20121;-80
2023/05/30 05:59:51;;;;;;;8.43;1.83;;;11.70;99.90;;;;;;5040246;28;20171;-82
2023/05/30 06:02:16;;;;;;;7.90;2.38;;;13.30;99.90;;;;;;5003384;28;20061;-82
2023/05/30 06:04:42;;;;;;;7.35;2.10;;;11.70;99.90;;;;;;5023195;28;20044;-83
2023/05/30 06:07:07;;;;;;;7.40;2.40;;;12.10;99.90;;;;;;5022359;28;20037;-82
2023/05/30 06:09:34;;;;;;;13.05;2.50;;;11.80;99.90;;;;;;5042705;28;20092;-84
2023/05/30 06:12:01;;;;;;;7.22;2.67;;;11.80;99.90;;;;;;5027931;28;20045;-84
2023/05/30 06:14:27;;;;;;;8.63;1.85;;;13.80;99.90;;;;;;5033041;28;20106;-83
2023/05/30 06:16:54;;;;;;;6.93;2.17;;;13.50;99.90;;;;;;5027709;28;20470;-83
2023/05/30 06:19:19;;;;;;;14.75;7.53;;;13.60;99.90;;;;;;5023064;28;20120;-83
2023/05/30 06:21:45;;;;;;;8.98;3.10;;;11.80;99.90;;;;;;5023211;28;20171;-84
2023/05/30 06:24:14;;;;;;;11.13;2.33;;;11.80;99.90;;;;;;5044286;28;20120;-84
2023/05/30 06:26:39;;;;;;;9.30;2.15;;;11.80;99.90;;;;;;5036471;28;20183;-84
2023/05/30 06:29:05;;;;;;;8.95;2.45;;;11.80;99.90;;;;;;5038897;28;20191;-84
2023/05/30 06:31:31;;;;;;;9.70;1.98;;;12.80;99.90;;;;;;5047342;28;20048;-82
2023/05/30 06:33:56;;;;;;;7.00;2.05;;;11.90;99.90;;;;;;5041420;28;20041;-82
2023/05/30 06:36:22;;;;;;;7.63;2.20;;;12.30;99.90;;;;;;5016756;28;20041;-83
2023/05/30 06:38:48;;;;;;;5.30;2.53;;;11.90;99.90;;;;;;5039933;28;20057;-82
2023/05/30 06:41:13;;;;;;;11.63;2.75;;;12.20;99.90;;;;;;5037228;28;20034;-82
2023/05/30 06:43:39;;;;;;;5.38;2.13;;;11.90;99.90;;;;;;5032144;28;20469;-83
2023/05/30 06:46:05;;;;;;;10.30;2.75;;;12.00;99.90;;;;;;5044596;28;20306;-83
2023/05/30 06:48:31;;;;;;;14.65;2.63;;;11.90;99.90;;;;;;5044151;28;20055;-81
2023/05/30 06:50:57;;;;;;;6.78;1.88;;;11.90;99.90;;;;;;5040203;28;20070;-80
2023/05/30 06:53:22;;;;;;;6.78;2.08;;;11.90;99.90;;;;;;5042015;28;20509;-82
2023/05/30 06:55:48;;;;;;;8.98;2.00;;;13.00;99.90;;;;;;5047699;28;20044;-82
2023/05/30 06:58:13;;;;;;;25.95;11.32;;;13.20;99.90;;;;;;5045636;28;20146;-82
2023/05/30 07:00:39;;;;;;;8.07;2.65;;;13.70;99.90;;;;;;5030580;28;20133;-83
2023/05/30 07:03:05;;;;;;;11.43;2.22;;;12.00;99.90;;;;;;5044486;28;20095;-81
2023/05/30 07:05:30;;;;;;;8.70;2.45;;;12.00;99.90;;;;;;5040269;28;20130;-82
2023/05/30 07:07:56;;;;;;;11.07;2.38;;;12.00;99.90;;;;;;5046181;28;20037;-83
2023/05/30 07:10:22;;;;;;;10.60;2.90;;;13.30;99.90;;;;;;5030001;28;20473;-83
2023/05/30 07:12:47;;;;;;;8.25;2.22;;;12.10;99.90;;;;;;5042918;28;20041;-83
2023/05/30 07:15:13;;;;;;;10.57;2.95;;;12.00;99.90;;;;;;5042145;28;20197;-83
2023/05/30 07:17:39;;;;;;;10.25;2.33;;;12.10;99.90;;;;;;5027340;28;20044;-84
2023/05/30 07:20:06;;;;;;;7.35;2.30;;;12.10;99.90;;;;;;5042940;28;20048;-82
2023/05/30 07:22:32;;;;;;;7.10;1.75;;;12.10;99.90;;;;;;5042956;28;20144;-82
2023/05/30 07:24:58;;;;;;;10.63;1.90;;;14.00;99.90;;;;;;5030298;28;20124;-90
2023/05/30 07:27:23;;;;;;;9.35;1.92;;;12.10;99.90;;;;;;5043107;28;20049;-91
2023/05/30 07:29:49;;;;;;;7.40;1.88;;;13.50;99.90;;;;;;5046716;28;20037;-84
2023/05/30 07:32:15;;;;;;;3.63;1.05;;;12.10;99.90;;;;;;5040124;28;20041;-83
2023/05/30 07:34:41;;;;;;;5.97;1.80;;;12.10;99.90;;;;;;5039851;28;20052;-84
2023/05/30 07:37:07;;;;;;;7.95;1.60;;;12.10;99.90;;;;;;5041833;28;20050;-84
2023/05/30 07:39:35;;;;;;;3.20;1.38;;;11.70;99.90;;;;;;5039750;28;20061;-84
2023/05/30 07:42:01;;;;;;;2.92;1.30;;;12.10;99.90;;;;;;5058658;28;20053;-83
2023/05/30 07:44:30;;;;;;;8.02;1.30;;;14.00;99.90;;;;;;5038695;28;20116;-83
2023/05/30 07:46:56;;;;;;;5.10;1.33;;;12.90;99.90;;;;;;5048394;28;20512;-84
2023/05/30 07:49:22;;;;;;;5.65;1.35;;;12.20;99.90;;;;;;5041804;28;20056;-83
2023/05/30 07:51:48;;;;;;;4.03;1.05;;;14.00;99.90;;;;;;5039133;28;20427;-83
2023/05/30 07:54:15;;;;;;;6.18;1.38;;;14.20;99.90;;;;;;5024775;28;20086;-83
2023/05/30 07:56:40;;;;;;;5.13;2.03;;;12.10;99.90;;;;;;5022903;28;20514;-84
2023/05/30 07:59:06;;;;;;;3.28;1.40;;;13.00;99.90;;;;;;5041720;28;20124;-84
2023/05/30 08:01:32;;;;;;;3.17;1.40;;;12.40;99.90;;;;;;5024676;28;20044;-83
2023/05/30 08:03:59;;;;;;;5.85;1.83;;;13.90;99.90;;;;;;5041945;28;20451;-84
2023/05/30 08:06:25;;;;;;;4.13;1.88;;;12.40;99.90;;;;;;5019446;28;20073;-84
2023/05/30 08:08:51;;;;;;;4.15;1.25;;;12.50;99.90;;;;;;5024727;28;20098;-84
2023/05/30 08:11:17;;;;;;;4.50;1.40;;;12.30;99.90;;;;;;5042414;28;20451;-84
2023/05/30 08:13:47;;;;;;;6.50;1.42;;;14.10;99.90;;;;;;5041545;28;20072;-84
2023/05/30 08:16:13;;;;;;;7.20;1.45;;;12.30;99.90;;;;;;5042699;28;20041;-83
2023/05/30 08:18:39;;;;;;;3.83;1.30;;;12.50;99.90;;;;;;5041501;28;20569;-84
2023/05/30 08:21:05;;;;;;;4.85;1.10;;;12.50;99.90;;;;;;5039960;28;20041;-84
2023/05/30 08:23:30;;;;;;;4.95;1.33;;;13.50;99.90;;;;;;5042158;28;20492;-84
2023/05/30 08:25:56;;;;;;;8.80;6.90;;;12.50;99.90;;;;;;5040380;28;20037;-84
2023/05/30 08:28:23;;;;;;;3.80;1.92;;;12.50;99.90;;;;;;5044872;28;20033;-84
2023/05/30 08:30:50;;;;;;;4.43;0.95;;;12.50;99.90;;;;;;5026953;28;20052;-83
2023/05/30 08:33:19;;;;;;;1.55;0.52;;;12.40;99.90;;;;;;5022948;28;20467;-84
2023/05/30 08:35:45;;;;;;;1.38;0.45;;;12.50;99.90;;;;;;5035674;28;20064;-84
2023/05/30 08:38:12;;;;;;;0.57;0.25;;;12.80;99.90;;;;;;5040427;28;20080;-84
2023/05/30 08:40:46;;;;;;;2.38;0.50;;;12.50;99.90;;;;;;5024035;28;20179;-83
2023/05/30 08:43:12;;;;;;;1.60;0.57;;;13.00;99.90;;;;;;5005951;28;20456;-84
2023/05/30 08:45:38;;;;;;;2.10;0.50;;;12.60;99.90;;;;;;5043702;28;20041;-83
2023/05/30 08:48:05;;;;;;;0.85;0.45;;;12.60;99.90;;;;;;5041277;28;20048;-83
2023/05/30 08:50:33;;;;;;;1.33;0.50;;;12.60;99.90;;;;;;5043875;28;20048;-83
2023/05/30 08:53:11;;;;;;;1.95;0.32;;;12.60;99.90;;;;;;5027854;28;20080;-84
2023/05/30 08:55:46;;;;;;;5.50;0.50;;;14.50;99.90;;;;;;5043136;28;20086;-85
2023/05/30 08:58:22;;;;;;;4.50;0.45;;;13.90;99.90;;;;;;5042206;28;20041;-84
2023/05/30 09:00:49;;;;;;;3.58;0.40;;;14.20;99.90;;;;;;5039607;28;20045;-82
2023/05/30 09:03:16;;;;;;;2.25;0.20;;;12.80;99.90;;;;;;5024075;28;20056;-82
2023/05/30 09:05:45;;;;;;;1.20;0.40;;;13.70;99.90;;;;;;5041010;28;20048;-83
2023/05/30 09:08:13;;;;;;;1.80;0.30;;;13.80;99.90;;;;;;5041450;28;20525;-82
2023/05/30 09:10:47;;;;;;;0.55;0.40;;;14.60;99.90;;;;;;5024177;28;20040;-82
2023/05/30 09:13:13;;;;;;;;;;;13.00;99.90;;;;;;5042214;28;20041;-82
2023/05/30 09:15:39;;;;;;;0.93;0.22;;;12.90;99.90;;;;;;5042936;28;19927;-83
2023/05/30 09:18:05;;;;;;;0.50;0.20;;;13.20;99.90;;;;;;5041440;28;20129;-82
2023/05/30 09:20:31;;;;;;;1.55;0.10;;;12.80;99.90;;;;;;5021474;28;20128;-83
2023/05/30 09:22:57;;;;;;;2.83;0.40;;;13.30;99.90;;;;;;5037668;28;20052;-83
2023/05/30 09:25:23;;;;;;;0.93;0.20;;;13.40;99.90;;;;;;5040929;28;20516;-83
2023/05/30 09:27:50;;;;;;;2.28;0.30;;;13.40;99.90;;;;;;5042538;28;20072;-83
2023/05/30 09:30:16;;;;;;;0.50;0.20;;;13.50;99.90;;;;;;5039964;28;20091;-83
2023/05/30 09:32:58;;;;;;;3.35;0.10;;;13.60;99.90;;;;;;5028398;28;20041;-83
2023/05/30 09:35:25;;;;;;;3.28;1.98;;;14.20;99.90;;;;;;5061156;28;20033;-83
2023/05/30 09:37:50;;;;;;;2.72;0.73;;;14.70;99.90;;;;;;5052616;28;20602;-82
2023/05/30 09:40:16;;;;;;;0.47;0.20;;;13.80;99.90;;;;;;5015006;28;20070;-82
2023/05/30 09:42:44;;;;;;;0.20;0.10;;;13.80;99.90;;;;;;5041170;28;20041;-83
2023/05/30 09:45:12;;;;;;;1.30;0.22;;;14.10;99.90;;;;;;5022091;28;20036;-82
2023/05/30 09:47:45;;;;;;;0.65;0.10;;;13.80;99.90;;;;;;5042355;28;20042;-83
2023/05/30 09:50:19;;;;;;;1.80;0.30;;;13.80;99.90;;;;;;5039384;28;20079;-82
2023/05/30 09:52:49;;;;;;;0.55;0.10;;;13.80;99.90;;;;;;5042722;28;20036;-83
2023/05/30 09:55:15;;;;;;;1.85;0.10;;;13.80;99.90;;;;;;5039352;28;20041;-84
2023/05/30 09:57:46;;;;;;;1.67;0.10;;;15.10;99.90;;;;;;5020388;28;20052;-83
2023/05/30 10:00:15;;;;;;;1.42;0.20;;;15.30;99.90;;;;;;5040025;28;20481;-83
2023/05/30 10:02:54;;;;;;;3.42;0.50;;;13.70;99.90;;;;;;5026668;28;20484;-83
2023/05/30 10:05:26;;;;;;;1.13;0.30;;;13.70;99.90;;;;;;5020580;28;20040;-82
2023/05/30 10:07:53;;;;;;;1.75;0.30;;;13.70;99.90;;;;;;5037724;28;20451;-83
2023/05/30 10:10:19;;;;;;;0.98;0.30;;;13.60;99.90;;;;;;5040253;28;20601;-83
2023/05/30 10:12:53;;;;;;;0.45;0.32;;;13.60;99.90;;;;;;5022444;28;20436;-84
2023/05/30 10:15:23;;;;;;;0.85;0.20;;;13.60;99.90;;;;;;5041352;28;20048;-84
2023/05/30 10:18:08;;;;;;;0.43;0.30;;;13.60;99.90;;;;;;5040305;28;20047;-83
2023/05/30 10:20:43;;;;;;;0.52;0.22;;;13.70;99.90;;;;;;5020260;28;20413;-83
2023/05/30 10:23:12;;;;;;;5.30;0.50;;;13.60;99.90;;;;;;5039173;28;20044;-83
2023/05/30 10:25:43;;;;;;;8.43;0.40;;;14.20;99.90;;;;;;5022388;28;20071;-84
2023/05/30 10:28:15;;;;;;;3.13;0.50;;;14.90;99.90;;;;;;5039942;28;20477;-84
2023/05/30 10:30:41;;;;;;;5.00;0.70;;;13.60;99.90;;;;;;5040837;28;20631;-84
2023/05/30 10:33:09;;;;;;;6.47;0.68;;;14.10;99.90;;;;;;5023756;28;20045;-83
2023/05/30 10:35:35;;;;;;;2.33;0.30;;;13.60;99.90;;;;;;5027698;28;20047;-83
2023/05/30 10:38:07;;;;;;;3.33;0.45;;;15.50;99.90;;;;;;5026235;28;20037;-82
2023/05/30 10:40:48;;;;;;;6.45;3.50;;;13.60;99.90;;;;;;5022993;28;20053;-83
2023/05/30 10:43:14;;;;;;;1.73;0.60;;;13.60;99.90;;;;;;5043127;28;20784;-84
2023/05/30 10:46:23;;;;;;;0.40;0.20;;;13.50;99.90;;;;;;5027982;28;20041;-83
2023/05/30 10:48:58;;;;;;;6.00;0.40;;;13.50;99.90;;;;;;5011506;28;20044;-83
2023/05/30 10:51:24;;;;;;;2.78;0.57;;;13.50;99.90;;;;;;5024206;28;20572;-83
2023/05/30 10:53:50;;;;;;;1.58;0.30;;;13.60;99.90;;;;;;5041143;28;20112;-84
2023/05/30 10:56:39;;;;;;;1.20;0.30;;;13.60;99.90;;;;;;5039961;28;20049;-83
2023/05/30 10:59:18;;;;;;;3.92;0.40;;;13.60;99.90;;;;;;5023175;28;20199;-83
2023/05/30 11:02:01;;;;;;;1.50;0.57;;;13.70;99.90;;;;;;5024632;28;20041;-83
2023/05/30 11:04:37;;;;;;;0.85;0.20;;;15.20;99.90;;;;;;5044605;28;20045;-83
2023/05/30 11:07:05;;;;;;;3.42;0.60;;;13.80;99.90;;;;;;5038853;28;20072;-83
2023/05/30 11:09:31;;;;;;;2.38;0.40;;;13.80;99.90;;;;;;5044871;28;20120;-83
2023/05/30 11:11:58;;;;;;;1.83;0.30;;;15.30;99.90;;;;;;5040710;28;20137;-84
2023/05/30 11:14:25;;;;;;;2.55;0.30;;;14.00;99.90;;;;;;5027233;28;20069;-84
2023/05/30 11:16:54;;;;;;;1.25;0.20;;;14.10;99.90;;;;;;5040050;28;20080;-84
2023/05/30 11:19:26;;;;;;;0.65;0.40;;;14.10;99.90;;;;;;5037127;28;20128;-84
2023/05/30 11:22:03;;;;;;;1.63;0.47;;;14.20;99.90;;;;;;5034621;28;20045;-84
2023/05/30 11:24:30;;;;;;;0.70;0.30;;;14.20;99.90;;;;;;5059512;28;20048;-84
2023/05/30 11:27:01;;;;;;;0.95;0.55;;;14.20;99.90;;;;;;5041896;28;20177;-85
2023/05/30 11:29:43;;;;;;;1.27;0.50;;;14.30;99.90;;;;;;5041390;28;20036;-84
2023/05/30 11:32:10;;;;;;;2.20;0.60;;;14.20;99.90;;;;;;5006031;28;20129;-84
2023/05/30 11:34:37;;;;;;;3.92;0.43;;;14.20;99.90;;;;;;5040730;28;20042;-84
2023/05/30 11:37:03;;;;;;;0.70;0.50;;;14.30;99.90;;;;;;5046859;28;20813;-84
2023/05/30 11:39:33;;;;;;;2.60;0.30;;;14.20;99.90;;;;;;5023050;28;20080;-84
2023/05/30 11:42:00;;;;;;;0.55;0.30;;;14.20;99.90;;;;;;5029988;28;20052;-84
2023/05/30 11:44:25;;;;;;;1.52;0.43;;;14.20;99.90;;;;;;5025310;28;20076;-83
2023/05/30 11:47:10;;;;;;;0.73;0.50;;;14.90;99.90;;;;;;5045789;28;20524;-83
2023/05/30 11:49:36;;;;;;;;;;;14.20;99.90;;;;;;5040493;28;20042;-84
2023/05/30 11:52:03;;;;;;;3.33;0.30;;;14.20;99.90;;;;;;5022139;28;19927;-84
2023/05/30 11:54:29;;;;;;;2.20;0.38;;;14.30;99.90;;;;;;5042482;28;20123;-83
2023/05/30 11:56:56;;;;;;;0.80;0.45;;;14.30;99.90;;;;;;5041722;28;20706;-84
2023/05/30 11:59:26;;;;;;;2.15;0.40;;;14.40;99.90;;;;;;5041243;28;20437;-83
2023/05/30 12:01:56;;;;;;;0.38;0.28;;;14.30;99.90;;;;;;5045867;28;20041;-83
2023/05/30 12:04:26;;;;;;;0.30;0.30;;;14.80;99.90;;;;;;5041765;28;20227;-83
2023/05/30 12:06:56;;;;;;;0.85;0.63;;;16.20;99.90;;;;;;5033540;28;20122;-83
2023/05/30 12:09:22;;;;;;;6.72;4.85;;;14.40;99.90;;;;;;5043027;28;20057;-84
2023/05/30 12:11:53;;;;;;;4.70;3.53;;;14.50;99.90;;;;;;5029328;28;20440;-83
2023/05/30 12:14:18;;;;;;;1.23;0.73;;;15.20;99.90;;;;;;5039817;28;20092;-84
2023/05/30 12:16:44;;;;;;;1.52;1.10;;;15.80;99.90;;;;;;4997165;28;20045;-84
2023/05/30 12:19:13;;;;;;;0.63;0.38;;;14.40;99.90;;;;;;5038576;28;20092;-83
2023/05/30 12:21:42;;;;;;;2.50;0.73;;;14.50;99.90;;;;;;5038861;28;20092;-82
2023/05/30 12:24:09;;;;;;;0.73;0.38;;;14.50;99.90;;;;;;5039094;28;20041;-83
2023/05/30 12:26:35;;;;;;;0.50;0.50;;;14.60;99.90;;;;;;5040637;28;20641;-80
2023/05/30 12:29:10;;;;;;;1.05;0.50;;;15.20;99.90;;;;;;5025063;28;20049;-83
2023/05/30 12:31:36;;;;;;;1.63;0.50;;;14.70;99.90;;;;;;5005286;28;20054;-83
2023/05/30 12:34:02;;;;;;;1.05;0.60;;;16.00;99.90;;;;;;5018574;28;20045;-82
2023/05/30 12:36:27;;;;;;;2.47;0.60;;;14.70;99.90;;;;;;5039397;28;20156;-83
2023/05/30 12:38:58;;;;;;;1.13;0.77;;;15.60;99.90;;;;;;5020584;28;20049;-82
2023/05/30 12:41:28;;;;;;;1.10;1.00;;;14.80;99.90;;;;;;5040043;28;20390;-84
2023/05/30 12:43:55;;;;;;;1.33;1.05;;;15.30;99.90;;;;;;5044086;28;20089;-83
2023/05/30 12:46:20;;;;;;;3.78;1.00;;;16.20;99.90;;;;;;5040845;28;20045;-82